Houlton, ME

22:11 EDT le 20 octobre 2014 (GMT -0400)
Houlton International | Change Station
CLOSE
Current Station
Aéroport
Location: Houlton,
Altitude: 492 ft
Stations météo à proximité

Alt. 492 ft 46.12 °N, 67.79 °W | Updated 18 minutes ago

Ciel dégagé
Ciel dégagé
31 ° F
Paraît 28 ° F
N
4
Vent Variable Vent de Sud

Aujourd'hui
Haut(e) -- | Bas -- ° F
--% Risque de précip.
Hier
Haut(e) -- | Bas -- ° F
Precip. -- pouce
6:54 AM 5:36 PM
Lune descendante, 8% visible
Pression 29.96 pouce
Visibilité 10.0 Miles terrestres
Nuages Ciel dégagé
Refroidissement éolien 28 ° F
Point de rosée 28 ° F
Humidité 89%
Précipitations 0.00 pouce
Profondeur de la couche neigeuse Non disponible.
UV 0 sur 12
Pollen .30 sur 12
Ozone Bon
PM2.5 Bon
Flu Activity Sporadic
METAR KHUL 210153Z AUTO 19003KT 10SM CLR M01/M02 A2994 RMK AO2 SLP144 T10061022

More Conditions Fewer Conditions

Pression 29.96 pouce
Visibilité 10.0 Miles terrestres
Nuages Ciel dégagé
Refroidissement éolien 28 ° F
Point de rosée 28 ° F
Humidité 89%
Précipitations 0.00 pouce
Profondeur de la couche neigeuse Non disponible.
UV 0 sur 12
Pollen .30 sur 12
Ozone Bon
PM2.5 Bon
Flu Activity Sporadic
METAR KHUL 210153Z AUTO 19003KT 10SM CLR M01/M02 A2994 RMK AO2 SLP144 T10061022

More Conditions Fewer Conditions

10-Day Weather Forecast

Almanac

Astronomie

Oct. 20, 2014 Lever Coucher
Temps réel 06:54 EDT 17:36 EDT
Crépuscule civil 06:24 EDT 18:06 EDT
Crépuscule nautique 05:49 EDT 18:41 EDT
Crépuscule astronomique 05:14 EDT 19:15 EDT
Lune 03:29 EDT (10/20) 16:05 EDT (10/20)
Durée de lumière visible 11h 42m
Longueur du jour
10h 41m
Tomorrow will be 3m 6s shorter.
Lune descendante, 8% of the Moon is Illuminated
Aujourd'hui
Lune descendante
Oct 23
Nouveau
Oct 30
Premier quartier
Nov 6
Pleine lune
Nov 14
Dernier quartier

Extrêmes aujourd'hui

State Highs State Lows

Community

WunderPhotos

Upload Photos

1,763,572 Photos téléchargées !

Nearby

Qualité de l'air

  Qualité de l'air Indice de la qualité de l'air Polluant
Hier Bon
OZONE
Hier Bon
PM2.5
Actuel Bon
PM2.5
Actuel Bon
OZONE
lundi Bon
OZONE
lundi Bon
PM2.5
mardi Bon
OZONE
mardi Bon
PM2.5
mercredi Bon
OZONE
mercredi Bon
PM2.5
jeudi Bon
OZONE
jeudi Bon
PM2.5
vendredi Bon
OZONE
vendredi Bon
PM2.5
samedi Bon
OZONE
samedi Bon
PM2.5

Épaisseur de neige

Station Depth Altitude
Pas de nouvelles chutes de neige

Activité sismique

Ville Distance Mag. Time & Date
No recent earthquake activity has been reported nearby.
Minimum magnitude displayed is 2.5.

Températures des eaux côtières

Lieu Température
Aucun rapport de station

Stations météo à proximité